sensor_id;sensor_type;location;lat;lon;timestamp;temperature;humidity
46085;DHT22;31823;47.032;8.310;2023-03-13T00:02:09;3.40;99.90
46085;DHT22;31823;47.032;8.310;2023-03-13T00:04:34;3.50;99.90
46085;DHT22;31823;47.032;8.310;2023-03-13T00:07:00;3.40;99.90
46085;DHT22;31823;47.032;8.310;2023-03-13T00:09:25;3.50;99.90
46085;DHT22;31823;47.032;8.310;2023-03-13T00:11:51;3.60;99.90
46085;DHT22;31823;47.032;8.310;2023-03-13T00:14:17;3.50;99.90
46085;DHT22;31823;47.032;8.310;2023-03-13T00:16:42;3.60;99.90
46085;DHT22;31823;47.032;8.310;2023-03-13T00:19:08;3.60;99.90
46085;DHT22;31823;47.032;8.310;2023-03-13T00:21:34;3.50;99.90
46085;DHT22;31823;47.032;8.310;2023-03-13T00:24:02;3.40;99.90
46085;DHT22;31823;47.032;8.310;2023-03-13T00:26:28;3.40;99.90
46085;DHT22;31823;47.032;8.310;2023-03-13T00:28:55;3.50;99.90
46085;DHT22;31823;47.032;8.310;2023-03-13T00:31:29;3.60;99.90
46085;DHT22;31823;47.032;8.310;2023-03-13T00:34:02;3.60;99.90
46085;DHT22;31823;47.032;8.310;2023-03-13T00:36:30;3.60;99.90
46085;DHT22;31823;47.032;8.310;2023-03-13T00:38:56;3.60;99.90
46085;DHT22;31823;47.032;8.310;2023-03-13T00:41:25;3.60;99.90
46085;DHT22;31823;47.032;8.310;2023-03-13T00:43:51;3.50;99.90
46085;DHT22;31823;47.032;8.310;2023-03-13T00:46:19;3.50;99.90
46085;DHT22;31823;47.032;8.310;2023-03-13T00:48:45;3.60;99.90
46085;DHT22;31823;47.032;8.310;2023-03-13T00:51:13;3.70;99.90
46085;DHT22;31823;47.032;8.310;2023-03-13T00:53:38;3.80;99.90
46085;DHT22;31823;47.032;8.310;2023-03-13T00:56:07;3.70;99.90
46085;DHT22;31823;47.032;8.310;2023-03-13T00:58:35;3.80;99.90
46085;DHT22;31823;47.032;8.310;2023-03-13T01:01:11;3.90;99.90
46085;DHT22;31823;47.032;8.310;2023-03-13T01:03:37;3.90;99.90
46085;DHT22;31823;47.032;8.310;2023-03-13T01:06:06;4.00;99.90
46085;DHT22;31823;47.032;8.310;2023-03-13T01:08:31;4.00;99.90
46085;DHT22;31823;47.032;8.310;2023-03-13T01:11:05;4.00;99.90
46085;DHT22;31823;47.032;8.310;2023-03-13T01:13:31;4.10;99.90
46085;DHT22;31823;47.032;8.310;2023-03-13T01:16:01;4.00;99.90
46085;DHT22;31823;47.032;8.310;2023-03-13T01:18:27;3.90;99.90
46085;DHT22;31823;47.032;8.310;2023-03-13T01:20:52;3.90;99.90
46085;DHT22;31823;47.032;8.310;2023-03-13T01:23:18;3.90;99.90
46085;DHT22;31823;47.032;8.310;2023-03-13T01:25:44;3.90;99.90
46085;DHT22;31823;47.032;8.310;2023-03-13T01:28:09;3.90;99.90
46085;DHT22;31823;47.032;8.310;2023-03-13T01:30:35;4.00;99.90
46085;DHT22;31823;47.032;8.310;2023-03-13T01:33:00;3.90;99.90
46085;DHT22;31823;47.032;8.310;2023-03-13T01:35:26;4.10;99.90
46085;DHT22;31823;47.032;8.310;2023-03-13T01:37:52;4.20;99.90
46085;DHT22;31823;47.032;8.310;2023-03-13T01:40:18;4.20;99.90
46085;DHT22;31823;47.032;8.310;2023-03-13T01:42:54;4.10;99.90
46085;DHT22;31823;47.032;8.310;2023-03-13T01:48:17;4.40;99.90
46085;DHT22;31823;47.032;8.310;2023-03-13T01:50:43;4.40;99.90
46085;DHT22;31823;47.032;8.310;2023-03-13T01:53:09;4.40;99.90
46085;DHT22;31823;47.032;8.310;2023-03-13T01:55:35;4.30;99.90
46085;DHT22;31823;47.032;8.310;2023-03-13T01:58:00;4.40;99.90
46085;DHT22;31823;47.032;8.310;2023-03-13T02:00:29;4.30;99.90
46085;DHT22;31823;47.032;8.310;2023-03-13T02:02:58;4.40;99.90
46085;DHT22;31823;47.032;8.310;2023-03-13T02:05:28;4.30;99.90
46085;DHT22;31823;47.032;8.310;2023-03-13T02:08:06;4.30;99.90
46085;DHT22;31823;47.032;8.310;2023-03-13T02:10:38;4.30;99.90
46085;DHT22;31823;47.032;8.310;2023-03-13T02:13:06;4.50;99.90
46085;DHT22;31823;47.032;8.310;2023-03-13T02:15:32;4.40;99.90
46085;DHT22;31823;47.032;8.310;2023-03-13T02:17:59;4.40;99.90
46085;DHT22;31823;47.032;8.310;2023-03-13T02:20:25;4.40;99.90
46085;DHT22;31823;47.032;8.310;2023-03-13T02:25:46;4.40;99.90
46085;DHT22;31823;47.032;8.310;2023-03-13T02:28:22;4.50;99.90
46085;DHT22;31823;47.032;8.310;2023-03-13T02:30:51;4.40;99.90
46085;DHT22;31823;47.032;8.310;2023-03-13T02:33:19;4.40;99.90
46085;DHT22;31823;47.032;8.310;2023-03-13T02:35:46;4.40;99.90
46085;DHT22;31823;47.032;8.310;2023-03-13T02:38:16;4.40;99.90
46085;DHT22;31823;47.032;8.310;2023-03-13T02:40:45;4.50;99.90
46085;DHT22;31823;47.032;8.310;2023-03-13T02:43:29;4.50;99.90
46085;DHT22;31823;47.032;8.310;2023-03-13T02:48:41;4.40;99.90
46085;DHT22;31823;47.032;8.310;2023-03-13T02:51:23;4.40;99.90
46085;DHT22;31823;47.032;8.310;2023-03-13T02:53:51;4.40;99.90
46085;DHT22;31823;47.032;8.310;2023-03-13T02:56:19;4.50;99.90
46085;DHT22;31823;47.032;8.310;2023-03-13T02:58:45;4.50;99.90
46085;DHT22;31823;47.032;8.310;2023-03-13T03:01:11;4.50;99.90
46085;DHT22;31823;47.032;8.310;2023-03-13T03:03:36;4.50;99.90
46085;DHT22;31823;47.032;8.310;2023-03-13T03:06:03;4.50;99.90
46085;DHT22;31823;47.032;8.310;2023-03-13T03:08:29;4.60;99.90
46085;DHT22;31823;47.032;8.310;2023-03-13T03:10:55;4.50;99.90
46085;DHT22;31823;47.032;8.310;2023-03-13T03:13:21;4.50;99.90
46085;DHT22;31823;47.032;8.310;2023-03-13T03:15:46;4.50;99.90
46085;DHT22;31823;47.032;8.310;2023-03-13T03:18:12;4.50;99.90
46085;DHT22;31823;47.032;8.310;2023-03-13T03:20:38;4.60;99.90
46085;DHT22;31823;47.032;8.310;2023-03-13T03:23:03;4.60;99.90
46085;DHT22;31823;47.032;8.310;2023-03-13T03:25:29;4.70;99.90
46085;DHT22;31823;47.032;8.310;2023-03-13T03:27:54;4.60;99.90
46085;DHT22;31823;47.032;8.310;2023-03-13T03:30:20;4.60;99.90
46085;DHT22;31823;47.032;8.310;2023-03-13T03:32:45;4.60;99.90
46085;DHT22;31823;47.032;8.310;2023-03-13T03:35:11;4.60;99.90
46085;DHT22;31823;47.032;8.310;2023-03-13T03:37:36;4.70;99.90
46085;DHT22;31823;47.032;8.310;2023-03-13T03:40:02;4.80;99.90
46085;DHT22;31823;47.032;8.310;2023-03-13T03:42:33;4.70;99.90
46085;DHT22;31823;47.032;8.310;2023-03-13T03:44:58;4.60;99.90
46085;DHT22;31823;47.032;8.310;2023-03-13T03:47:24;4.60;99.90
46085;DHT22;31823;47.032;8.310;2023-03-13T03:49:49;4.70;99.90
46085;DHT22;31823;47.032;8.310;2023-03-13T03:52:15;4.60;99.90
46085;DHT22;31823;47.032;8.310;2023-03-13T03:54:41;4.60;99.90
46085;DHT22;31823;47.032;8.310;2023-03-13T03:57:07;4.60;99.90
46085;DHT22;31823;47.032;8.310;2023-03-13T03:59:32;4.40;99.90
46085;DHT22;31823;47.032;8.310;2023-03-13T04:01:58;4.60;99.90
46085;DHT22;31823;47.032;8.310;2023-03-13T04:04:23;4.60;99.90
46085;DHT22;31823;47.032;8.310;2023-03-13T04:06:49;4.60;99.90
46085;DHT22;31823;47.032;8.310;2023-03-13T04:09:14;4.60;99.90
46085;DHT22;31823;47.032;8.310;2023-03-13T04:11:40;4.60;99.90
46085;DHT22;31823;47.032;8.310;2023-03-13T04:14:05;4.60;99.90
46085;DHT22;31823;47.032;8.310;2023-03-13T04:16:32;4.50;99.90
46085;DHT22;31823;47.032;8.310;2023-03-13T04:18:57;4.70;99.90
46085;DHT22;31823;47.032;8.310;2023-03-13T04:21:23;4.60;99.90
46085;DHT22;31823;47.032;8.310;2023-03-13T04:23:48;4.70;99.90
46085;DHT22;31823;47.032;8.310;2023-03-13T04:26:14;4.70;99.90
46085;DHT22;31823;47.032;8.310;2023-03-13T04:28:39;4.70;99.90
46085;DHT22;31823;47.032;8.310;2023-03-13T04:31:05;4.70;99.90
46085;DHT22;31823;47.032;8.310;2023-03-13T04:33:30;4.70;99.90
46085;DHT22;31823;47.032;8.310;2023-03-13T04:35:56;4.80;99.90
46085;DHT22;31823;47.032;8.310;2023-03-13T04:38:21;4.80;99.90
46085;DHT22;31823;47.032;8.310;2023-03-13T04:40:47;4.90;99.90
46085;DHT22;31823;47.032;8.310;2023-03-13T04:43:13;4.90;99.90
46085;DHT22;31823;47.032;8.310;2023-03-13T04:45:38;4.90;99.90
46085;DHT22;31823;47.032;8.310;2023-03-13T04:48:04;4.90;99.90
46085;DHT22;31823;47.032;8.310;2023-03-13T04:50:30;4.90;99.90
46085;DHT22;31823;47.032;8.310;2023-03-13T04:52:55;4.90;99.90
46085;DHT22;31823;47.032;8.310;2023-03-13T04:55:21;4.90;99.90
46085;DHT22;31823;47.032;8.310;2023-03-13T04:57:46;4.80;99.90
46085;DHT22;31823;47.032;8.310;2023-03-13T05:00:12;4.90;99.90
46085;DHT22;31823;47.032;8.310;2023-03-13T05:02:38;5.00;99.90
46085;DHT22;31823;47.032;8.310;2023-03-13T05:05:04;5.00;99.90
46085;DHT22;31823;47.032;8.310;2023-03-13T05:07:29;4.90;99.90
46085;DHT22;31823;47.032;8.310;2023-03-13T05:09:55;4.90;99.90
46085;DHT22;31823;47.032;8.310;2023-03-13T05:12:20;5.00;99.90
46085;DHT22;31823;47.032;8.310;2023-03-13T05:14:46;5.00;99.90
46085;DHT22;31823;47.032;8.310;2023-03-13T05:17:11;5.00;99.90
46085;DHT22;31823;47.032;8.310;2023-03-13T05:19:37;5.00;99.90
46085;DHT22;31823;47.032;8.310;2023-03-13T05:22:03;5.00;99.90
46085;DHT22;31823;47.032;8.310;2023-03-13T05:24:29;5.00;99.90
46085;DHT22;31823;47.032;8.310;2023-03-13T05:26:54;5.00;99.90
46085;DHT22;31823;47.032;8.310;2023-03-13T05:29:21;5.00;99.90
46085;DHT22;31823;47.032;8.310;2023-03-13T05:31:47;5.00;99.90
46085;DHT22;31823;47.032;8.310;2023-03-13T05:34:12;5.00;99.90
46085;DHT22;31823;47.032;8.310;2023-03-13T05:36:39;4.90;99.90
46085;DHT22;31823;47.032;8.310;2023-03-13T05:39:05;4.90;99.90
46085;DHT22;31823;47.032;8.310;2023-03-13T05:41:31;5.00;99.90
46085;DHT22;31823;47.032;8.310;2023-03-13T05:43:57;4.90;99.90
46085;DHT22;31823;47.032;8.310;2023-03-13T05:46:22;4.90;99.90
46085;DHT22;31823;47.032;8.310;2023-03-13T05:48:48;4.90;99.90
46085;DHT22;31823;47.032;8.310;2023-03-13T05:51:13;5.00;99.90
46085;DHT22;31823;47.032;8.310;2023-03-13T05:53:39;5.00;99.90
46085;DHT22;31823;47.032;8.310;2023-03-13T05:56:05;5.00;99.90
46085;DHT22;31823;47.032;8.310;2023-03-13T05:58:30;5.00;99.90
46085;DHT22;31823;47.032;8.310;2023-03-13T06:00:56;5.10;99.90
46085;DHT22;31823;47.032;8.310;2023-03-13T06:03:21;5.20;99.90
46085;DHT22;31823;47.032;8.310;2023-03-13T06:05:47;5.00;99.90
46085;DHT22;31823;47.032;8.310;2023-03-13T06:08:12;5.20;99.90
46085;DHT22;31823;47.032;8.310;2023-03-13T06:10:38;5.20;99.90
46085;DHT22;31823;47.032;8.310;2023-03-13T06:13:05;5.10;99.90
46085;DHT22;31823;47.032;8.310;2023-03-13T06:15:30;5.10;99.90
46085;DHT22;31823;47.032;8.310;2023-03-13T06:17:56;5.10;99.90
46085;DHT22;31823;47.032;8.310;2023-03-13T06:20:22;5.10;99.90
46085;DHT22;31823;47.032;8.310;2023-03-13T06:22:48;5.30;99.90
46085;DHT22;31823;47.032;8.310;2023-03-13T06:25:13;5.30;99.90
46085;DHT22;31823;47.032;8.310;2023-03-13T06:27:40;5.30;99.90
46085;DHT22;31823;47.032;8.310;2023-03-13T06:30:08;5.30;99.90
46085;DHT22;31823;47.032;8.310;2023-03-13T06:32:34;5.30;99.90
46085;DHT22;31823;47.032;8.310;2023-03-13T06:34:59;5.30;99.90
46085;DHT22;31823;47.032;8.310;2023-03-13T06:37:25;5.40;99.90
46085;DHT22;31823;47.032;8.310;2023-03-13T06:39:50;5.60;99.90
46085;DHT22;31823;47.032;8.310;2023-03-13T06:42:16;5.60;99.90
46085;DHT22;31823;47.032;8.310;2023-03-13T06:44:42;5.70;99.90
46085;DHT22;31823;47.032;8.310;2023-03-13T06:47:07;5.90;99.90
46085;DHT22;31823;47.032;8.310;2023-03-13T06:49:33;6.00;99.90
46085;DHT22;31823;47.032;8.310;2023-03-13T06:51:58;6.00;99.90
46085;DHT22;31823;47.032;8.310;2023-03-13T06:54:24;6.00;99.90
46085;DHT22;31823;47.032;8.310;2023-03-13T06:56:49;6.00;99.90
46085;DHT22;31823;47.032;8.310;2023-03-13T06:59:15;5.90;99.90
46085;DHT22;31823;47.032;8.310;2023-03-13T07:01:40;6.00;99.90
46085;DHT22;31823;47.032;8.310;2023-03-13T07:04:09;6.10;99.90
46085;DHT22;31823;47.032;8.310;2023-03-13T07:06:36;6.20;99.90
46085;DHT22;31823;47.032;8.310;2023-03-13T07:09:01;6.30;99.90
46085;DHT22;31823;47.032;8.310;2023-03-13T07:11:29;6.30;99.90
46085;DHT22;31823;47.032;8.310;2023-03-13T07:13:55;6.30;99.90
46085;DHT22;31823;47.032;8.310;2023-03-13T07:16:21;6.40;99.90
46085;DHT22;31823;47.032;8.310;2023-03-13T07:18:46;6.50;99.90
46085;DHT22;31823;47.032;8.310;2023-03-13T07:21:12;6.60;99.90
46085;DHT22;31823;47.032;8.310;2023-03-13T07:23:38;6.70;99.90
46085;DHT22;31823;47.032;8.310;2023-03-13T07:26:11;6.90;99.90
46085;DHT22;31823;47.032;8.310;2023-03-13T07:28:37;7.20;99.90
46085;DHT22;31823;47.032;8.310;2023-03-13T07:31:14;7.00;99.90
46085;DHT22;31823;47.032;8.310;2023-03-13T07:33:40;7.30;99.90
46085;DHT22;31823;47.032;8.310;2023-03-13T07:36:07;7.30;99.90
46085;DHT22;31823;47.032;8.310;2023-03-13T07:38:33;7.60;99.90
46085;DHT22;31823;47.032;8.310;2023-03-13T07:40:59;7.90;99.90
46085;DHT22;31823;47.032;8.310;2023-03-13T07:43:25;8.00;99.90
46085;DHT22;31823;47.032;8.310;2023-03-13T07:45:52;8.50;99.90
46085;DHT22;31823;47.032;8.310;2023-03-13T07:48:18;9.40;99.90
46085;DHT22;31823;47.032;8.310;2023-03-13T07:50:44;10.10;99.90
46085;DHT22;31823;47.032;8.310;2023-03-13T07:53:10;10.00;99.90
46085;DHT22;31823;47.032;8.310;2023-03-13T07:55:35;9.60;99.90
46085;DHT22;31823;47.032;8.310;2023-03-13T07:58:01;8.90;99.90
46085;DHT22;31823;47.032;8.310;2023-03-13T08:00:26;8.90;99.90
46085;DHT22;31823;47.032;8.310;2023-03-13T08:02:52;9.60;99.90
46085;DHT22;31823;47.032;8.310;2023-03-13T08:05:17;10.20;99.90
46085;DHT22;31823;47.032;8.310;2023-03-13T08:07:44;10.70;99.90
46085;DHT22;31823;47.032;8.310;2023-03-13T08:10:10;10.50;99.90
46085;DHT22;31823;47.032;8.310;2023-03-13T08:12:35;10.30;99.90
46085;DHT22;31823;47.032;8.310;2023-03-13T08:15:01;9.60;99.90
46085;DHT22;31823;47.032;8.310;2023-03-13T08:17:29;9.60;99.90
46085;DHT22;31823;47.032;8.310;2023-03-13T08:19:54;9.90;99.90
46085;DHT22;31823;47.032;8.310;2023-03-13T08:22:20;9.70;99.90
46085;DHT22;31823;47.032;8.310;2023-03-13T08:24:46;10.00;99.90
46085;DHT22;31823;47.032;8.310;2023-03-13T08:27:12;10.20;99.90
46085;DHT22;31823;47.032;8.310;2023-03-13T08:29:37;10.40;99.90
46085;DHT22;31823;47.032;8.310;2023-03-13T08:32:03;10.30;99.90
46085;DHT22;31823;47.032;8.310;2023-03-13T08:34:29;10.00;99.90
46085;DHT22;31823;47.032;8.310;2023-03-13T08:36:55;10.10;99.90
46085;DHT22;31823;47.032;8.310;2023-03-13T08:39:21;10.50;99.90
46085;DHT22;31823;47.032;8.310;2023-03-13T08:41:47;10.80;99.90
46085;DHT22;31823;47.032;8.310;2023-03-13T08:44:15;11.10;99.90
46085;DHT22;31823;47.032;8.310;2023-03-13T08:46:42;11.00;99.90
46085;DHT22;31823;47.032;8.310;2023-03-13T08:49:08;10.90;99.90
46085;DHT22;31823;47.032;8.310;2023-03-13T08:51:35;11.20;99.90
46085;DHT22;31823;47.032;8.310;2023-03-13T08:54:01;11.40;99.90
46085;DHT22;31823;47.032;8.310;2023-03-13T08:56:29;11.60;99.90
46085;DHT22;31823;47.032;8.310;2023-03-13T08:59:03;11.50;99.90
46085;DHT22;31823;47.032;8.310;2023-03-13T09:01:31;11.70;99.90
46085;DHT22;31823;47.032;8.310;2023-03-13T09:03:57;10.70;99.90
46085;DHT22;31823;47.032;8.310;2023-03-13T09:06:23;10.60;99.90
46085;DHT22;31823;47.032;8.310;2023-03-13T09:08:48;10.60;99.90
46085;DHT22;31823;47.032;8.310;2023-03-13T09:11:19;10.70;99.90
46085;DHT22;31823;47.032;8.310;2023-03-13T09:13:47;11.00;99.90
46085;DHT22;31823;47.032;8.310;2023-03-13T09:16:21;12.00;99.90
46085;DHT22;31823;47.032;8.310;2023-03-13T09:18:48;12.90;99.90
46085;DHT22;31823;47.032;8.310;2023-03-13T09:21:16;12.20;99.90
46085;DHT22;31823;47.032;8.310;2023-03-13T09:23:41;11.70;99.90
46085;DHT22;31823;47.032;8.310;2023-03-13T09:26:07;11.80;99.90
46085;DHT22;31823;47.032;8.310;2023-03-13T09:28:34;11.60;99.90
46085;DHT22;31823;47.032;8.310;2023-03-13T09:31:29;11.40;99.90
46085;DHT22;31823;47.032;8.310;2023-03-13T09:33:55;11.50;99.90
46085;DHT22;31823;47.032;8.310;2023-03-13T09:36:21;11.70;99.90
46085;DHT22;31823;47.032;8.310;2023-03-13T09:38:52;11.70;99.90
46085;DHT22;31823;47.032;8.310;2023-03-13T09:44:15;12.00;99.90
46085;DHT22;31823;47.032;8.310;2023-03-13T09:49:37;12.20;99.90
46085;DHT22;31823;47.032;8.310;2023-03-13T09:52:18;12.30;99.90
46085;DHT22;31823;47.032;8.310;2023-03-13T09:55:03;12.60;99.90
46085;DHT22;31823;47.032;8.310;2023-03-13T09:57:34;13.20;99.90
46085;DHT22;31823;47.032;8.310;2023-03-13T10:00:12;15.20;99.00
46085;DHT22;31823;47.032;8.310;2023-03-13T10:02:45;15.00;97.20
46085;DHT22;31823;47.032;8.310;2023-03-13T10:05:25;16.70;96.40
46085;DHT22;31823;47.032;8.310;2023-03-13T10:08:21;16.30;96.30
46085;DHT22;31823;47.032;8.310;2023-03-13T10:11:02;15.20;96.10
46085;DHT22;31823;47.032;8.310;2023-03-13T10:13:58;15.20;97.10
46085;DHT22;31823;47.032;8.310;2023-03-13T10:16:53;15.20;97.30
46085;DHT22;31823;47.032;8.310;2023-03-13T10:19:41;15.00;96.20
46085;DHT22;31823;47.032;8.310;2023-03-13T10:22:13;15.40;95.20
46085;DHT22;31823;47.032;8.310;2023-03-13T10:27:21;15.40;96.30
46085;DHT22;31823;47.032;8.310;2023-03-13T10:29:46;14.10;97.60
46085;DHT22;31823;47.032;8.310;2023-03-13T10:32:14;13.60;97.50
46085;DHT22;31823;47.032;8.310;2023-03-13T10:34:55;13.30;98.00
46085;DHT22;31823;47.032;8.310;2023-03-13T10:37:31;13.20;98.80
46085;DHT22;31823;47.032;8.310;2023-03-13T10:40:20;13.00;99.10
46085;DHT22;31823;47.032;8.310;2023-03-13T10:42:51;13.50;98.40
46085;DHT22;31823;47.032;8.310;2023-03-13T10:45:21;14.00;98.80
46085;DHT22;31823;47.032;8.310;2023-03-13T10:48:01;14.50;97.20
46085;DHT22;31823;47.032;8.310;2023-03-13T10:50:32;14.20;96.00
46085;DHT22;31823;47.032;8.310;2023-03-13T10:53:19;14.00;96.30
46085;DHT22;31823;47.032;8.310;2023-03-13T10:55:45;14.40;96.40
46085;DHT22;31823;47.032;8.310;2023-03-13T10:58:18;14.80;95.70
46085;DHT22;31823;47.032;8.310;2023-03-13T11:00:45;14.80;95.40
46085;DHT22;31823;47.032;8.310;2023-03-13T11:05:56;15.70;94.40
46085;DHT22;31823;47.032;8.310;2023-03-13T11:08:25;15.90;93.70
46085;DHT22;31823;47.032;8.310;2023-03-13T11:10:57;15.20;94.20
46085;DHT22;31823;47.032;8.310;2023-03-13T11:13:42;15.20;93.50
46085;DHT22;31823;47.032;8.310;2023-03-13T11:29:57;13.90;95.50
46085;DHT22;31823;47.032;8.310;2023-03-13T11:32:37;14.20;94.60
46085;DHT22;31823;47.032;8.310;2023-03-13T11:38:00;14.90;94.20
46085;DHT22;31823;47.032;8.310;2023-03-13T11:40:52;14.80;88.70
46085;DHT22;31823;47.032;8.310;2023-03-13T11:43:31;14.90;91.60
46085;DHT22;31823;47.032;8.310;2023-03-13T11:56:49;15.80;90.90
46085;DHT22;31823;47.032;8.310;2023-03-13T11:59:58;15.60;91.90
46085;DHT22;31823;47.032;8.310;2023-03-13T12:02:30;15.90;92.20
46085;DHT22;31823;47.032;8.310;2023-03-13T12:05:02;15.90;93.20
46085;DHT22;31823;47.032;8.310;2023-03-13T12:07:41;16.10;93.60
46085;DHT22;31823;47.032;8.310;2023-03-13T12:10:21;16.00;93.30
46085;DHT22;31823;47.032;8.310;2023-03-13T12:15:52;16.30;91.10
46085;DHT22;31823;47.032;8.310;2023-03-13T12:26:25;15.70;91.60
46085;DHT22;31823;47.032;8.310;2023-03-13T12:29:12;15.60;92.50
46085;DHT22;31823;47.032;8.310;2023-03-13T12:32:01;16.00;93.00
46085;DHT22;31823;47.032;8.310;2023-03-13T12:34:51;17.20;92.60
46085;DHT22;31823;47.032;8.310;2023-03-13T12:43:33;17.90;92.50
46085;DHT22;31823;47.032;8.310;2023-03-13T12:46:17;17.40;91.00
46085;DHT22;31823;47.032;8.310;2023-03-13T13:00:01;17.30;90.50
46085;DHT22;31823;47.032;8.310;2023-03-13T13:02:31;17.20;89.80
46085;DHT22;31823;47.032;8.310;2023-03-13T13:04:59;17.20;90.20
46085;DHT22;31823;47.032;8.310;2023-03-13T13:07:30;17.50;90.30
46085;DHT22;31823;47.032;8.310;2023-03-13T13:12:45;17.50;90.10
46085;DHT22;31823;47.032;8.310;2023-03-13T13:15:21;17.70;89.90
46085;DHT22;31823;47.032;8.310;2023-03-13T13:17:50;17.30;89.60
46085;DHT22;31823;47.032;8.310;2023-03-13T13:25:49;16.70;91.10
46085;DHT22;31823;47.032;8.310;2023-03-13T13:30:51;17.40;91.40
46085;DHT22;31823;47.032;8.310;2023-03-13T13:35:44;17.50;90.40
46085;DHT22;31823;47.032;8.310;2023-03-13T13:38:20;17.70;90.00
46085;DHT22;31823;47.032;8.310;2023-03-13T13:43:47;18.70;89.60
46085;DHT22;31823;47.032;8.310;2023-03-13T13:48:45;18.90;88.80
46085;DHT22;31823;47.032;8.310;2023-03-13T13:56:45;18.90;87.20
46085;DHT22;31823;47.032;8.310;2023-03-13T14:01:47;18.70;89.60
46085;DHT22;31823;47.032;8.310;2023-03-13T14:04:28;19.00;88.00
46085;DHT22;31823;47.032;8.310;2023-03-13T14:06:57;19.30;86.50
46085;DHT22;31823;47.032;8.310;2023-03-13T14:09:48;19.20;86.90
46085;DHT22;31823;47.032;8.310;2023-03-13T14:12:28;19.30;87.80
46085;DHT22;31823;47.032;8.310;2023-03-13T14:17:46;21.00;86.00
46085;DHT22;31823;47.032;8.310;2023-03-13T14:22:55;20.50;86.30
46085;DHT22;31823;47.032;8.310;2023-03-13T14:25:23;20.80;86.50
46085;DHT22;31823;47.032;8.310;2023-03-13T14:27:50;20.90;83.60
46085;DHT22;31823;47.032;8.310;2023-03-13T14:30:18;21.60;86.50
46085;DHT22;31823;47.032;8.310;2023-03-13T14:32:44;21.40;83.80
46085;DHT22;31823;47.032;8.310;2023-03-13T14:35:14;21.60;84.70
46085;DHT22;31823;47.032;8.310;2023-03-13T14:37:40;22.90;83.30
46085;DHT22;31823;47.032;8.310;2023-03-13T14:40:08;23.40;80.90
46085;DHT22;31823;47.032;8.310;2023-03-13T14:42:39;23.60;77.40
46085;DHT22;31823;47.032;8.310;2023-03-13T14:45:15;22.30;79.80
46085;DHT22;31823;47.032;8.310;2023-03-13T14:47:45;22.30;81.30
46085;DHT22;31823;47.032;8.310;2023-03-13T14:50:13;22.40;81.10
46085;DHT22;31823;47.032;8.310;2023-03-13T14:52:44;22.40;79.80
46085;DHT22;31823;47.032;8.310;2023-03-13T14:57:58;22.60;77.70
46085;DHT22;31823;47.032;8.310;2023-03-13T15:00:40;21.80;77.20
46085;DHT22;31823;47.032;8.310;2023-03-13T15:05:48;21.00;80.10
46085;DHT22;31823;47.032;8.310;2023-03-13T15:08:22;20.30;81.20
46085;DHT22;31823;47.032;8.310;2023-03-13T15:10:48;20.70;79.70
46085;DHT22;31823;47.032;8.310;2023-03-13T15:15:50;20.10;82.10
46085;DHT22;31823;47.032;8.310;2023-03-13T15:20:49;20.10;80.80
46085;DHT22;31823;47.032;8.310;2023-03-13T15:23:15;19.90;81.90
46085;DHT22;31823;47.032;8.310;2023-03-13T15:25:40;19.80;81.30
46085;DHT22;31823;47.032;8.310;2023-03-13T15:28:17;19.30;84.80
46085;DHT22;31823;47.032;8.310;2023-03-13T15:30:44;19.30;84.50
46085;DHT22;31823;47.032;8.310;2023-03-13T15:33:16;18.90;85.70
46085;DHT22;31823;47.032;8.310;2023-03-13T15:35:42;18.80;86.50
46085;DHT22;31823;47.032;8.310;2023-03-13T15:38:26;18.40;87.30
46085;DHT22;31823;47.032;8.310;2023-03-13T15:40:52;18.20;87.30
46085;DHT22;31823;47.032;8.310;2023-03-13T15:43:20;17.90;87.50
46085;DHT22;31823;47.032;8.310;2023-03-13T15:45:48;17.70;88.30
46085;DHT22;31823;47.032;8.310;2023-03-13T15:50:52;17.50;90.50
46085;DHT22;31823;47.032;8.310;2023-03-13T15:55:48;17.90;90.10
46085;DHT22;31823;47.032;8.310;2023-03-13T15:58:15;17.90;90.50
46085;DHT22;31823;47.032;8.310;2023-03-13T16:00:41;17.90;90.40
46085;DHT22;31823;47.032;8.310;2023-03-13T16:03:17;17.80;90.80
46085;DHT22;31823;47.032;8.310;2023-03-13T16:05:43;17.70;90.90
46085;DHT22;31823;47.032;8.310;2023-03-13T16:08:17;17.40;88.40
46085;DHT22;31823;47.032;8.310;2023-03-13T16:10:44;17.00;90.00
46085;DHT22;31823;47.032;8.310;2023-03-13T16:13:10;16.70;90.20
46085;DHT22;31823;47.032;8.310;2023-03-13T16:15:36;16.50;90.80
46085;DHT22;31823;47.032;8.310;2023-03-13T16:18:02;16.50;91.90
46085;DHT22;31823;47.032;8.310;2023-03-13T16:20:29;16.30;92.60
46085;DHT22;31823;47.032;8.310;2023-03-13T16:22:55;16.10;96.00
46085;DHT22;31823;47.032;8.310;2023-03-13T16:25:22;15.90;94.90
46085;DHT22;31823;47.032;8.310;2023-03-13T16:27:48;15.90;97.50
46085;DHT22;31823;47.032;8.310;2023-03-13T16:30:18;15.60;98.80
46085;DHT22;31823;47.032;8.310;2023-03-13T16:32:45;15.40;96.20
46085;DHT22;31823;47.032;8.310;2023-03-13T16:35:11;15.40;96.50
46085;DHT22;31823;47.032;8.310;2023-03-13T16:37:37;15.10;99.70
46085;DHT22;31823;47.032;8.310;2023-03-13T16:40:07;15.00;98.00
46085;DHT22;31823;47.032;8.310;2023-03-13T16:42:35;14.70;99.90
46085;DHT22;31823;47.032;8.310;2023-03-13T16:45:00;14.40;99.90
46085;DHT22;31823;47.032;8.310;2023-03-13T16:47:27;14.20;99.90
46085;DHT22;31823;47.032;8.310;2023-03-13T16:49:53;14.00;99.90
46085;DHT22;31823;47.032;8.310;2023-03-13T16:52:19;13.90;99.90
46085;DHT22;31823;47.032;8.310;2023-03-13T16:54:45;13.80;99.90
46085;DHT22;31823;47.032;8.310;2023-03-13T16:57:12;13.60;99.90
46085;DHT22;31823;47.032;8.310;2023-03-13T16:59:38;13.60;99.90
46085;DHT22;31823;47.032;8.310;2023-03-13T17:02:05;13.30;99.90
46085;DHT22;31823;47.032;8.310;2023-03-13T17:04:36;13.10;99.90
46085;DHT22;31823;47.032;8.310;2023-03-13T17:07:18;13.10;99.90
46085;DHT22;31823;47.032;8.310;2023-03-13T17:09:44;13.10;99.90
46085;DHT22;31823;47.032;8.310;2023-03-13T17:12:09;12.80;99.90
46085;DHT22;31823;47.032;8.310;2023-03-13T17:14:35;12.80;99.90
46085;DHT22;31823;47.032;8.310;2023-03-13T17:17:01;12.60;99.90
46085;DHT22;31823;47.032;8.310;2023-03-13T17:19:27;12.40;99.90
46085;DHT22;31823;47.032;8.310;2023-03-13T17:21:53;12.20;99.90
46085;DHT22;31823;47.032;8.310;2023-03-13T17:24:18;12.10;99.90
46085;DHT22;31823;47.032;8.310;2023-03-13T17:26:44;12.00;99.90
46085;DHT22;31823;47.032;8.310;2023-03-13T17:29:15;11.90;99.90
46085;DHT22;31823;47.032;8.310;2023-03-13T17:31:41;11.80;99.90
46085;DHT22;31823;47.032;8.310;2023-03-13T17:34:07;11.70;99.90
46085;DHT22;31823;47.032;8.310;2023-03-13T17:36:34;11.60;99.90
46085;DHT22;31823;47.032;8.310;2023-03-13T17:39:05;11.50;99.90
46085;DHT22;31823;47.032;8.310;2023-03-13T17:41:32;11.40;99.90
46085;DHT22;31823;47.032;8.310;2023-03-13T17:43:58;11.40;99.90
46085;DHT22;31823;47.032;8.310;2023-03-13T17:46:28;11.30;99.90
46085;DHT22;31823;47.032;8.310;2023-03-13T17:48:54;11.20;99.90
46085;DHT22;31823;47.032;8.310;2023-03-13T17:51:22;11.00;99.90